createdAt,value
2018-03-06T00:00:27.136Z,78
2018-03-06T00:01:07.534Z,77.9
2018-03-06T00:01:47.910Z,78.38
2018-03-06T00:02:28.289Z,78.75
2018-03-06T00:03:08.725Z,78
2018-03-06T00:03:49.104Z,78.66
2018-03-06T00:04:29.505Z,78.28
2018-03-06T00:05:09.901Z,78.32
2018-03-06T00:05:50.281Z,77.71
2018-03-06T00:06:30.698Z,77.81
2018-03-06T00:07:11.096Z,77.62
2018-03-06T00:07:51.487Z,78
2018-03-06T00:08:31.912Z,77.84
2018-03-06T00:09:12.334Z,77.47
2018-03-06T00:09:52.741Z,77.47
2018-03-06T00:10:33.131Z,78.03
2018-03-06T00:11:13.548Z,77.56
2018-03-06T00:11:53.950Z,77.84
2018-03-06T00:12:34.357Z,77.84
2018-03-06T00:13:14.786Z,78.09
2018-03-06T00:13:55.148Z,78.47
2018-03-06T00:14:35.572Z,78.66
2018-03-06T00:15:15.977Z,78.28
2018-03-06T00:15:56.357Z,78.51
2018-03-06T00:16:36.744Z,78.23
2018-03-06T00:17:17.150Z,78.13
2018-03-06T00:17:57.562Z,77.75
2018-03-06T00:18:37.934Z,76.71
2018-03-06T00:19:18.353Z,76.61
2018-03-06T00:19:58.775Z,76.42
2018-03-06T00:20:39.159Z,76.23
2018-03-06T00:21:19.560Z,76.42
2018-03-06T00:21:59.966Z,76.61
2018-03-06T00:22:40.374Z,76.61
2018-03-06T00:23:20.743Z,76.42
2018-03-06T00:24:01.150Z,76.23
2018-03-06T00:24:41.551Z,76.32
2018-03-06T00:25:21.933Z,75.95
2018-03-06T00:26:02.316Z,76.04
2018-03-06T00:26:42.697Z,76.04
2018-03-06T00:27:23.166Z,76.04
2018-03-06T00:28:03.540Z,75.67
2018-03-06T00:28:43.950Z,76.14
2018-03-06T00:29:24.336Z,75.76
2018-03-06T00:30:04.741Z,76.14
2018-03-06T00:30:45.120Z,76.04
2018-03-06T00:31:25.513Z,76.04
2018-03-06T00:32:05.894Z,76.23
2018-03-06T00:32:46.307Z,76.32
2018-03-06T00:33:26.704Z,76.52
2018-03-06T00:34:07.107Z,76.32
2018-03-06T00:34:47.522Z,77.09
2018-03-06T00:35:27.938Z,76.9
2018-03-06T00:36:08.341Z,77.18
2018-03-06T00:36:48.731Z,77.09
2018-03-06T00:37:29.145Z,76.99
2018-03-06T00:38:09.545Z,77.18
2018-03-06T00:38:49.967Z,76.8
2018-03-06T00:39:30.373Z,77.28
2018-03-06T00:40:10.765Z,76.99
2018-03-06T00:40:51.175Z,77.37
2018-03-06T00:41:31.565Z,77.09
2018-03-06T00:42:11.972Z,76.9
2018-03-06T00:42:52.356Z,77.47
2018-03-06T00:43:32.768Z,77.18
2018-03-06T00:44:13.175Z,77.37
2018-03-06T00:44:53.588Z,77.09
2018-03-06T00:45:33.969Z,77.18
2018-03-06T00:46:14.397Z,77.47
2018-03-06T00:46:54.833Z,76.61
2018-03-06T00:47:35.216Z,76.61
2018-03-06T00:48:15.650Z,76.8
2018-03-06T00:48:56.052Z,76.61
2018-03-06T00:49:36.484Z,76.14
2018-03-06T00:50:16.854Z,76.32
2018-03-06T00:50:57.232Z,76.04
2018-03-06T00:51:37.634Z,76.04
2018-03-06T00:52:17.999Z,75.95
2018-03-06T00:52:58.382Z,75.28
2018-03-06T00:53:38.790Z,75.28
2018-03-06T00:54:19.192Z,75.67
2018-03-06T00:54:59.585Z,75.95
2018-03-06T00:55:39.965Z,75.95
2018-03-06T00:56:20.367Z,75.85
2018-03-06T00:57:00.794Z,75.28
2018-03-06T00:57:41.155Z,74.81
2018-03-06T00:58:21.514Z,74.81
2018-03-06T00:59:01.896Z,74.81
2018-03-06T00:59:42.325Z,75
2018-03-06T01:00:22.748Z,75.09
2018-03-06T01:01:03.178Z,75.57
2018-03-06T01:01:43.592Z,75.28
2018-03-06T01:02:24.027Z,75.76
2018-03-06T01:03:04.419Z,75.76
2018-03-06T01:03:44.830Z,75.67
2018-03-06T01:04:25.240Z,75.57
2018-03-06T01:05:05.643Z,76.04
2018-03-06T01:05:46.064Z,75.28
2018-03-06T01:06:26.439Z,75.76
2018-03-06T01:07:06.853Z,75.76
2018-03-06T01:07:47.253Z,76.04
2018-03-06T01:08:27.744Z,76.42
2018-03-06T01:09:08.074Z,76.04
2018-03-06T01:09:48.465Z,76.23
2018-03-06T01:10:28.889Z,75.76
2018-03-06T01:11:09.274Z,75.85
2018-03-06T01:11:49.701Z,75.85
2018-03-06T01:12:30.098Z,76.32
2018-03-06T01:13:10.472Z,75.76
2018-03-06T01:13:50.861Z,76.04
2018-03-06T01:14:31.299Z,75.47
2018-03-06T01:15:11.671Z,75.09
2018-03-06T01:15:52.061Z,76.04
2018-03-06T01:16:33.683Z,75.09
2018-03-06T01:17:14.124Z,74.81
2018-03-06T01:17:54.540Z,74.43
2018-03-06T01:18:34.980Z,74.24
2018-03-06T01:19:15.451Z,74.81
2018-03-06T01:19:55.927Z,75.28
2018-03-06T01:20:36.403Z,75.57
2018-03-06T01:21:16.789Z,75.57
2018-03-06T01:21:57.191Z,75.95
2018-03-06T01:22:37.597Z,75.76
2018-03-06T01:23:17.994Z,75.57
2018-03-06T01:23:58.378Z,75.85
2018-03-06T01:24:38.814Z,75.23
2018-03-06T01:25:19.207Z,75.42
2018-03-06T01:25:59.591Z,74.94
2018-03-06T01:26:40.038Z,74.66
2018-03-06T01:27:20.447Z,74.37
2018-03-06T01:28:00.862Z,74.27
2018-03-06T01:28:41.315Z,73.9
2018-03-06T01:29:21.700Z,73.33
2018-03-06T01:30:02.106Z,73.33
2018-03-06T01:30:42.528Z,72.95
2018-03-06T01:31:22.937Z,72.95
2018-03-06T01:32:03.350Z,72.85
2018-03-06T01:32:43.756Z,73.23
2018-03-06T01:33:24.146Z,73.52
2018-03-06T01:34:04.560Z,73.9
2018-03-06T01:34:44.964Z,73.71
2018-03-06T01:35:25.378Z,74.27
2018-03-06T01:36:05.788Z,74.27
2018-03-06T01:36:46.174Z,74.27
2018-03-06T01:37:26.598Z,74.15
2018-03-06T01:38:07.011Z,74.81
2018-03-06T01:38:47.401Z,74.43
2018-03-06T01:39:27.796Z,74.9
2018-03-06T01:40:08.208Z,75.19
2018-03-06T01:40:48.611Z,75.09
2018-03-06T01:41:29.031Z,75.28
2018-03-06T01:42:09.389Z,75.19
2018-03-06T01:42:49.815Z,74.9
2018-03-06T01:43:30.227Z,74.71
2018-03-06T01:44:10.623Z,74.71
2018-03-06T01:44:51.029Z,75.38
2018-03-06T01:45:31.490Z,74.81
2018-03-06T01:46:11.874Z,75
2018-03-06T01:46:52.288Z,75.28
2018-03-06T01:47:32.680Z,75.09
2018-03-06T01:48:13.106Z,75.09
2018-03-06T01:48:53.471Z,74.81
2018-03-06T01:49:33.943Z,75
2018-03-06T01:50:14.322Z,74.71
2018-03-06T01:50:54.699Z,74.62
2018-03-06T01:51:35.115Z,74.43
2018-03-06T01:52:15.509Z,74.62
2018-03-06T01:52:55.905Z,75
2018-03-06T01:53:36.306Z,75
2018-03-06T01:54:16.706Z,74.9
2018-03-06T01:54:57.131Z,74.24
2018-03-06T01:55:37.550Z,74.81
2018-03-06T01:56:17.959Z,75.19
2018-03-06T01:56:58.350Z,75.19
2018-03-06T01:57:38.751Z,75.28
2018-03-06T01:58:19.149Z,75
2018-03-06T01:58:59.550Z,74.9
2018-03-06T01:59:39.955Z,75
2018-03-06T02:00:20.337Z,74.33
2018-03-06T02:01:00.737Z,74.81
2018-03-06T02:01:41.178Z,74.81
2018-03-06T02:02:21.577Z,75.28
2018-03-06T02:03:01.969Z,76.04
2018-03-06T02:03:42.333Z,76.23
2018-03-06T02:04:22.750Z,76.23
2018-03-06T02:05:03.136Z,75.95
2018-03-06T02:05:43.521Z,75.95
2018-03-06T02:06:23.913Z,75
2018-03-06T02:07:04.330Z,74.85
2018-03-06T02:07:44.735Z,74.85
2018-03-06T02:08:25.151Z,74.94
2018-03-06T02:09:05.547Z,75.13
2018-03-06T02:09:45.932Z,74.66
2018-03-06T02:10:26.327Z,74.18
2018-03-06T02:11:06.747Z,73.99
2018-03-06T02:11:47.129Z,73.9
2018-03-06T02:12:27.514Z,73.8
2018-03-06T02:13:07.959Z,73.61
2018-03-06T02:13:48.344Z,73.42
2018-03-06T02:14:28.743Z,73.33
2018-03-06T02:15:09.192Z,73.23
2018-03-06T02:15:49.600Z,72.85
2018-03-06T02:16:29.988Z,72.95
2018-03-06T02:17:10.398Z,72.66
2018-03-06T02:17:50.809Z,72.38
2018-03-06T02:18:31.166Z,72.32
2018-03-06T02:19:11.587Z,72.47
2018-03-06T02:19:51.971Z,72.66
2018-03-06T02:20:32.371Z,72.99
2018-03-06T02:21:12.773Z,72.32
2018-03-06T02:21:53.179Z,72.32
2018-03-06T02:22:33.576Z,72.28
2018-03-06T02:23:13.952Z,72
2018-03-06T02:23:54.325Z,72.38
2018-03-06T02:24:34.738Z,72.95
2018-03-06T02:25:15.135Z,72.75
2018-03-06T02:25:55.533Z,73.04
2018-03-06T02:26:35.953Z,73.23
2018-03-06T02:27:16.365Z,74.08
2018-03-06T02:27:56.788Z,74.05
2018-03-06T02:28:37.175Z,74.27
2018-03-06T02:29:17.555Z,74.62
2018-03-06T02:29:57.971Z,74.9
2018-03-06T02:30:38.394Z,75
2018-03-06T02:31:18.773Z,75.85
2018-03-06T02:31:59.226Z,76.42
2018-03-06T02:32:39.602Z,76.61
2018-03-06T02:33:20.011Z,77.05
2018-03-06T02:34:00.448Z,77.71
2018-03-06T02:34:40.847Z,77.62
2018-03-06T02:35:21.237Z,78.09
2018-03-06T02:36:01.647Z,78.28
2018-03-06T02:36:42.047Z,78.95
2018-03-06T02:37:22.461Z,79.42
2018-03-06T02:38:02.838Z,79.8
2018-03-06T02:38:43.259Z,79.52
2018-03-06T02:39:23.638Z,79.9
2018-03-06T02:40:04.033Z,80.27
2018-03-06T02:40:44.501Z,80.56
2018-03-06T02:41:24.838Z,80.62
2018-03-06T02:42:05.234Z,80.9
2018-03-06T02:42:45.629Z,80.8
2018-03-06T02:43:26.036Z,81.66
2018-03-06T02:44:06.426Z,81.66
2018-03-06T02:44:46.817Z,81.6
2018-03-06T02:45:27.237Z,81.32
2018-03-06T02:46:07.614Z,81.32
2018-03-06T02:46:48.043Z,80.37
2018-03-06T02:47:28.418Z,79.8
2018-03-06T02:48:08.802Z,79.27
2018-03-06T02:48:49.208Z,78.8
2018-03-06T02:49:29.626Z,78.51
2018-03-06T02:50:10.051Z,78.51
2018-03-06T02:50:50.501Z,77.94
2018-03-06T02:51:30.873Z,77.66
2018-03-06T02:52:11.289Z,77.84
2018-03-06T02:52:51.672Z,77.66
2018-03-06T02:53:32.052Z,78.13
2018-03-06T02:54:12.455Z,78.13
2018-03-06T02:54:52.831Z,77.66
2018-03-06T02:55:33.252Z,77.94
2018-03-06T02:56:13.632Z,76.99
2018-03-06T02:56:54.039Z,76.9
2018-03-06T02:57:34.461Z,76.8
2018-03-06T02:58:14.828Z,76.52
2018-03-06T02:58:55.200Z,76.42
2018-03-06T02:59:35.644Z,76.9
2018-03-06T03:00:16.030Z,76.27
2018-03-06T03:00:56.444Z,76.56
2018-03-06T03:01:36.854Z,76.08
2018-03-06T03:02:17.262Z,75.76
2018-03-06T03:02:57.669Z,76.08
2018-03-06T03:03:38.063Z,76.27
2018-03-06T03:04:18.476Z,76.37
2018-03-06T03:04:58.856Z,75.79
2018-03-06T03:05:39.262Z,75.13
2018-03-06T03:06:19.668Z,75.6
2018-03-06T03:07:00.029Z,75.13
2018-03-06T03:07:40.438Z,75.04
2018-03-06T03:08:20.818Z,74.75
2018-03-06T03:09:01.219Z,74.75
2018-03-06T03:09:41.614Z,74.37
2018-03-06T03:10:22.033Z,74.75
2018-03-06T03:11:02.451Z,74.08
2018-03-06T03:11:42.832Z,74.37
2018-03-06T03:12:23.245Z,74.08
2018-03-06T03:13:03.644Z,74.18
2018-03-06T03:13:44.020Z,74.47
2018-03-06T03:14:24.441Z,74.12
2018-03-06T03:15:04.844Z,73.9
2018-03-06T03:15:45.283Z,74.27
2018-03-06T03:16:25.648Z,73.99
2018-03-06T03:17:06.082Z,73.99
2018-03-06T03:17:46.488Z,74.94
2018-03-06T03:18:26.902Z,75.13
2018-03-06T03:19:07.333Z,75.23
2018-03-06T03:19:47.740Z,76.18
2018-03-06T03:20:28.133Z,76.27
2018-03-06T03:21:08.554Z,76.9
2018-03-06T03:21:48.966Z,76.71
2018-03-06T03:22:29.359Z,76.9
2018-03-06T03:23:09.773Z,76.56
2018-03-06T03:23:50.208Z,76.75
2018-03-06T03:24:30.610Z,76.14
2018-03-06T03:25:11.017Z,76.9
2018-03-06T03:25:51.452Z,76.71
2018-03-06T03:26:31.825Z,77.37
2018-03-06T03:27:12.268Z,77.37
2018-03-06T03:27:52.645Z,77.75
2018-03-06T03:28:33.040Z,77.75
2018-03-06T03:29:13.444Z,77.28
2018-03-06T03:29:53.859Z,77.94
2018-03-06T03:30:34.276Z,77.75
2018-03-06T03:31:14.677Z,78.03
2018-03-06T03:31:55.053Z,78.42
2018-03-06T03:32:35.458Z,78.23
2018-03-06T03:33:15.864Z,78.23
2018-03-06T03:33:56.272Z,78.32
2018-03-06T03:34:36.665Z,78.8
2018-03-06T03:35:17.088Z,78.51
2018-03-06T03:35:57.518Z,78.42
2018-03-06T03:36:37.882Z,77.47
2018-03-06T03:37:18.297Z,77.84
2018-03-06T03:37:58.746Z,77.94
2018-03-06T03:38:39.160Z,77.66
2018-03-06T03:39:19.543Z,77.37
2018-03-06T03:39:59.955Z,78.23
2018-03-06T03:40:40.346Z,78.51
2018-03-06T03:41:20.728Z,78.23
2018-03-06T03:42:01.111Z,78.42
2018-03-06T03:42:41.548Z,78.32
2018-03-06T03:43:21.976Z,78.32
2018-03-06T03:44:02.397Z,78.51
2018-03-06T03:44:42.770Z,78.99
2018-03-06T03:45:23.178Z,78.13
2018-03-06T03:46:03.608Z,77.84
2018-03-06T03:46:43.956Z,78.23
2018-03-06T03:47:24.344Z,78.42
2018-03-06T03:48:04.759Z,78.8
2018-03-06T03:48:45.175Z,78.23
2018-03-06T03:49:25.557Z,77.75
2018-03-06T03:50:05.939Z,77.94
2018-03-06T03:50:46.363Z,78.13
2018-03-06T03:51:26.766Z,77.79
2018-03-06T03:52:07.176Z,77.75
2018-03-06T03:52:47.605Z,77.31
2018-03-06T03:53:28.028Z,77.22
2018-03-06T03:54:08.414Z,76.27
2018-03-06T03:54:48.810Z,75.79
2018-03-06T03:55:29.238Z,76.18
2018-03-06T03:56:09.631Z,75.07
2018-03-06T03:56:50.062Z,74.51
2018-03-06T03:57:30.468Z,74.31
2018-03-06T03:58:10.874Z,74.03
2018-03-06T03:58:51.280Z,73.18
2018-03-06T03:59:31.655Z,73.27
2018-03-06T04:00:12.112Z,73.27
2018-03-06T04:00:52.461Z,73.84
2018-03-06T04:01:32.852Z,73.84
2018-03-06T04:02:13.241Z,74.31
2018-03-06T04:02:53.653Z,74.66
2018-03-06T04:03:34.049Z,74.85
2018-03-06T04:04:14.446Z,75.04
2018-03-06T04:04:54.841Z,74.66
2018-03-06T04:05:35.233Z,74.94
2018-03-06T04:06:15.617Z,74.98
2018-03-06T04:06:56.009Z,74.69
2018-03-06T04:47:09.509Z,78.27
2018-03-06T04:47:49.939Z,78.45
2018-03-06T04:48:30.344Z,77.51
2018-03-06T04:49:10.734Z,77.79
2018-03-06T04:49:51.121Z,77.89
2018-03-06T04:50:31.489Z,77.89
2018-03-06T04:51:11.864Z,77.7
2018-03-06T04:51:52.275Z,77.31
2018-03-06T04:52:32.672Z,76.84
2018-03-06T04:53:13.089Z,76.78
2018-03-06T04:53:53.474Z,76.5
2018-03-06T04:54:33.874Z,76.21
2018-03-06T04:55:14.262Z,76.88
2018-03-06T04:55:54.663Z,76.97
2018-03-06T04:56:35.061Z,76.21
2018-03-06T04:57:15.465Z,75.93
2018-03-06T04:57:55.857Z,75.36
2018-03-06T04:58:36.255Z,74.79
2018-03-06T04:59:16.650Z,74.79
2018-03-06T04:59:57.044Z,74.6
2018-03-06T05:00:37.418Z,74.12
2018-03-06T05:01:17.816Z,74.03
2018-03-06T05:01:58.217Z,74.07
2018-03-06T05:02:38.633Z,73.78
2018-03-06T05:03:19.024Z,74.16
2018-03-06T05:03:59.414Z,73.21
2018-03-06T05:04:39.833Z,72.92
2018-03-06T05:05:20.247Z,72.92
2018-03-06T05:06:00.677Z,72.64
2018-03-06T05:06:41.118Z,72.92
2018-03-06T05:07:21.510Z,73.21
2018-03-06T05:08:01.952Z,73.21
2018-03-06T05:08:42.348Z,72.45
2018-03-06T05:09:22.951Z,72.74
2018-03-06T05:10:03.358Z,72.92
2018-03-06T05:10:43.766Z,72.92
2018-03-06T05:11:24.238Z,73.11
2018-03-06T05:12:04.573Z,72.64
2018-03-06T05:12:44.983Z,72.74
2018-03-06T05:13:25.416Z,72.83
2018-03-06T05:14:05.842Z,72.55
2018-03-06T05:14:46.244Z,72.92
2018-03-06T05:15:26.659Z,73.11
2018-03-06T05:16:07.046Z,72.55
2018-03-06T05:16:47.476Z,73.49
2018-03-06T05:17:27.863Z,73.02
2018-03-06T05:18:08.279Z,72.83
2018-03-06T05:18:48.737Z,73.11
2018-03-06T05:19:29.147Z,73.59
2018-03-06T05:20:09.556Z,73.3
2018-03-06T05:20:49.978Z,73.02
2018-03-06T05:21:30.374Z,72.83
2018-03-06T05:22:10.788Z,73.4
2018-03-06T05:22:51.199Z,72.83
2018-03-06T05:23:31.585Z,73.06
2018-03-06T05:24:12.013Z,72.39
2018-03-06T05:24:52.464Z,71.72
2018-03-06T05:25:32.830Z,72.01
2018-03-06T05:26:13.240Z,71.5
2018-03-06T05:26:53.640Z,72.58
2018-03-06T05:27:34.068Z,72.26
2018-03-06T05:28:14.474Z,72.35
2018-03-06T05:28:54.880Z,73.21
2018-03-06T05:29:35.270Z,72.55
2018-03-06T05:30:15.681Z,72.26
2018-03-06T05:30:56.114Z,73.21
2018-03-06T05:31:36.492Z,72.07
2018-03-06T05:32:16.904Z,73.21
2018-03-06T05:32:57.317Z,72.83
2018-03-06T05:33:37.716Z,72.83
2018-03-06T05:34:18.141Z,72.55
2018-03-06T05:34:58.558Z,72.64
2018-03-06T05:35:38.977Z,72.35
2018-03-06T05:36:19.395Z,72.07
2018-03-06T05:36:59.823Z,72.16
2018-03-06T05:37:40.194Z,72.6
2018-03-06T05:38:20.601Z,72.79
2018-03-06T05:39:01.058Z,72.79
2018-03-06T05:39:41.411Z,73.74
2018-03-06T05:40:21.839Z,73.93
2018-03-06T05:41:02.236Z,74.69
2018-03-06T05:41:42.650Z,75.17
2018-03-06T05:42:23.040Z,75.07
2018-03-06T05:43:03.442Z,74.31
2018-03-06T05:43:43.828Z,74.98
2018-03-06T05:44:24.239Z,75.07
2018-03-06T05:45:04.649Z,74.88
2018-03-06T05:45:45.047Z,75.07
2018-03-06T05:46:25.471Z,75.84
2018-03-06T05:47:05.876Z,75.36
2018-03-06T05:47:46.288Z,74.98
2018-03-06T05:48:26.678Z,74.88
2018-03-06T05:49:07.088Z,74.51
2018-03-06T05:49:47.513Z,74.79
2018-03-06T05:50:27.897Z,74.47
2018-03-06T05:51:08.332Z,75.32
2018-03-06T05:51:48.779Z,76.46
2018-03-06T05:52:29.113Z,76.75
2018-03-06T05:53:09.521Z,77.31
2018-03-06T05:53:49.928Z,77.45
2018-03-06T05:54:30.302Z,76.4
2018-03-06T05:55:10.721Z,75.93
2018-03-06T05:55:51.089Z,75.84
2018-03-06T05:56:31.476Z,75.07
2018-03-06T05:57:11.890Z,74.79
2018-03-06T05:57:52.292Z,75.93
2018-03-06T05:58:32.692Z,74.88
2018-03-06T05:59:13.092Z,74.88
2018-03-06T05:59:53.510Z,74.6
2018-03-06T06:00:33.923Z,75.17
2018-03-06T06:01:14.323Z,74.98
2018-03-06T06:01:54.743Z,74.88
2018-03-06T06:02:35.150Z,74.88
2018-03-06T06:03:15.583Z,74.88
2018-03-06T06:03:55.997Z,75.93
2018-03-06T06:04:36.390Z,76.03
2018-03-06T06:05:16.786Z,76.12
2018-03-06T06:05:57.192Z,75.93
2018-03-06T06:06:37.590Z,75.17
2018-03-06T06:07:17.986Z,74.69
2018-03-06T06:07:58.383Z,74.41
2018-03-06T06:08:38.769Z,75.07
2018-03-06T06:09:19.208Z,75.17
2018-03-06T06:09:59.594Z,74.98
2018-03-06T06:10:40.036Z,74.41
2018-03-06T06:11:20.439Z,73.93
2018-03-06T06:12:00.863Z,74.79
2018-03-06T06:12:41.269Z,74.79
2018-03-06T06:13:21.677Z,74.79
2018-03-06T06:14:02.111Z,74.22
2018-03-06T06:14:42.541Z,74.79
2018-03-06T06:15:22.945Z,74.56
2018-03-06T06:16:03.370Z,74.85
2018-03-06T06:16:43.748Z,75.32
2018-03-06T06:17:24.161Z,75.79
2018-03-06T06:18:07.410Z,76.08
2018-03-06T06:18:47.786Z,76.9
2018-03-06T06:19:28.189Z,77.66
2018-03-06T06:20:08.574Z,77.66
2018-03-06T06:20:48.978Z,78.32
2018-03-06T06:21:29.376Z,78.32
2018-03-06T06:22:09.791Z,78.99
2018-03-06T06:22:50.209Z,78.99
2018-03-06T06:23:30.619Z,79.17
2018-03-06T06:24:11.027Z,79.74
2018-03-06T06:24:51.444Z,79.55
2018-03-06T06:25:31.868Z,78.23
2018-03-06T06:26:12.269Z,78.27
2018-03-06T06:26:52.675Z,78.27
2018-03-06T06:27:33.153Z,78.08
2018-03-06T06:28:13.478Z,77.89
2018-03-06T06:28:53.902Z,77.41
2018-03-06T06:29:34.301Z,77.41
2018-03-06T06:30:14.691Z,76.75
2018-03-06T06:30:55.080Z,76.78
2018-03-06T06:31:35.472Z,76.31
2018-03-06T06:32:15.875Z,76.21
2018-03-06T06:32:56.263Z,75.26
2018-03-06T06:33:36.706Z,74.88
2018-03-06T06:34:17.094Z,74.51
2018-03-06T06:34:57.519Z,74.6
2018-03-06T06:35:37.924Z,74.03
2018-03-06T06:36:18.282Z,74.07
2018-03-06T06:36:58.700Z,72.74
2018-03-06T06:37:39.101Z,72.83
2018-03-06T06:38:19.528Z,73.21
2018-03-06T06:39:00.020Z,72.74
2018-03-06T06:39:40.635Z,72.07
2018-03-06T06:40:21.026Z,72.07
2018-03-06T06:41:01.464Z,72.26
2018-03-06T06:41:41.826Z,72.26
2018-03-06T06:42:22.461Z,72.45
2018-03-06T06:43:02.870Z,73.02
2018-03-06T06:43:43.325Z,72.83
2018-03-06T06:44:23.804Z,73.02
2018-03-06T06:45:04.343Z,73.02
2018-03-06T06:45:44.819Z,72.16
2018-03-06T06:46:25.249Z,72.74
2018-03-06T06:47:05.722Z,72.83
2018-03-06T06:47:46.160Z,72.26
2018-03-06T06:48:26.560Z,72.35
2018-03-06T06:49:06.954Z,72.16
2018-03-06T06:49:47.329Z,71.69
2018-03-06T06:51:34.607Z,71.25
2018-03-06T06:52:15.032Z,70.64
2018-03-06T06:52:55.504Z,70.87
2018-03-06T06:53:35.876Z,70.77
2018-03-06T06:54:16.561Z,70.87
2018-03-06T06:54:56.945Z,70.77
2018-03-06T06:55:37.360Z,71.06
2018-03-06T06:56:17.769Z,70.3
2018-03-06T06:56:58.203Z,70.3
2018-03-06T06:57:38.624Z,70.2
2018-03-06T06:58:19.010Z,70.2
2018-03-06T06:58:59.413Z,69.82
2018-03-06T07:00:51.756Z,69.73
2018-03-06T07:01:32.173Z,69.25
2018-03-06T07:05:26.184Z,70.45
2018-03-06T07:06:06.599Z,70.36
2018-03-06T07:06:47.006Z,70.36
2018-03-06T07:07:27.404Z,70.93
2018-03-06T07:08:07.970Z,71.22
2018-03-06T07:08:48.430Z,71.78
2018-03-06T07:09:28.827Z,71.41
2018-03-06T07:10:09.423Z,71.41
2018-03-06T07:10:49.827Z,71.31
2018-03-06T07:11:30.285Z,71.41
2018-03-06T07:12:10.836Z,71.25
2018-03-06T07:12:53.676Z,70.74
2018-03-06T07:13:35.080Z,70.87
2018-03-06T07:14:17.340Z,70.87
2018-03-06T07:14:57.551Z,70.49
2018-03-06T07:15:37.578Z,70.49
2018-03-06T07:16:19.124Z,70.83
2018-03-06T07:17:01.171Z,70.97
2018-03-06T07:17:43.576Z,70.39
2018-03-06T07:18:23.790Z,70.68
2018-03-06T07:19:04.305Z,70.58
2018-03-06T07:19:45.597Z,69.73
2018-03-06T07:20:26.589Z,70.1
2018-03-06T07:21:06.669Z,70.2
2018-03-06T07:21:47.319Z,70.39
2018-03-06T07:22:27.701Z,70.1
2018-03-06T07:23:08.206Z,70.39
2018-03-06T07:23:49.110Z,69.82
2018-03-06T07:24:29.653Z,70.1
2018-03-06T07:25:10.025Z,70.49
2018-03-06T07:25:50.472Z,70.01
2018-03-06T07:26:31.605Z,70.1
2018-03-06T07:27:12.227Z,69.06
2018-03-06T07:27:52.030Z,69.25
2018-03-06T07:28:32.455Z,69.15
2018-03-06T07:29:13.531Z,69.25
2018-03-06T07:29:53.488Z,69.44
2018-03-06T07:30:33.904Z,69.25
2018-03-06T07:31:14.375Z,69.25
2018-03-06T07:31:54.811Z,69.79
2018-03-06T07:32:35.223Z,70.54
2018-03-06T07:33:15.628Z,70.97
2018-03-06T07:33:56.058Z,71.59
2018-03-06T07:34:36.483Z,71.5
2018-03-06T07:35:16.886Z,71.63
2018-03-06T07:35:57.346Z,70.87
2018-03-06T07:36:37.742Z,70.49
2018-03-06T07:37:18.143Z,69.92
2018-03-06T07:37:58.554Z,69.63
2018-03-06T07:38:38.989Z,69.15
2018-03-06T07:39:19.385Z,69.35
2018-03-06T07:39:59.787Z,69.35
2018-03-06T07:40:40.175Z,69.29
2018-03-06T07:41:20.557Z,69.38
2018-03-06T07:42:00.962Z,68.81
2018-03-06T07:42:41.430Z,68.62
2018-03-06T07:43:21.828Z,67.86
2018-03-06T07:44:02.257Z,67.95
2018-03-06T07:44:42.642Z,67.76
2018-03-06T07:45:23.416Z,68.52
2018-03-06T07:46:03.720Z,68.05
2018-03-06T07:46:44.063Z,67.67
2018-03-06T07:47:24.689Z,67.95
2018-03-06T07:48:05.118Z,67.92
2018-03-06T07:48:45.571Z,67.95
2018-03-06T07:49:26.020Z,68.15
2018-03-06T07:50:06.584Z,68.24
2018-03-06T07:50:47.052Z,68.52
2018-03-06T07:51:27.638Z,68.43
2018-03-06T07:52:08.232Z,68.33
2018-03-06T07:52:49.103Z,68.9
2018-03-06T07:53:29.571Z,68.24
2018-03-06T07:54:10.035Z,67.95
2018-03-06T07:54:50.412Z,67.86
2018-03-06T07:55:30.882Z,68.71
2018-03-06T07:56:11.255Z,68.05
2018-03-06T07:56:51.684Z,68.05
2018-03-06T07:57:32.180Z,67.47
2018-03-06T07:58:12.631Z,67.38
2018-03-06T07:58:53.014Z,67.38
2018-03-06T07:59:33.415Z,67.29
2018-03-06T08:00:13.820Z,67.38
2018-03-06T08:00:54.240Z,67.38
2018-03-06T08:01:34.650Z,66.91
2018-03-06T08:02:15.071Z,66.72
2018-03-06T08:02:55.469Z,66.53
2018-03-06T08:03:35.892Z,66.56
2018-03-06T08:04:16.324Z,66.72
2018-03-06T08:04:56.807Z,66.81
2018-03-06T08:05:39.117Z,66.56
2018-03-06T08:06:19.603Z,67.22
2018-03-06T08:07:00.272Z,67.03
2018-03-06T08:07:40.721Z,66.08
2018-03-06T08:08:21.186Z,65.51
2018-03-06T08:09:01.625Z,65.13
2018-03-06T08:09:42.279Z,65.89
2018-03-06T08:10:22.537Z,66.08
2018-03-06T08:11:02.989Z,65.42
2018-03-06T08:11:43.372Z,65.03
2018-03-06T08:12:23.756Z,65.61
2018-03-06T08:13:04.129Z,65.61
2018-03-06T08:13:44.526Z,65.03
2018-03-06T08:14:24.914Z,65.38
2018-03-06T08:15:05.323Z,65.77
2018-03-06T08:15:45.732Z,66.62
2018-03-06T08:16:26.146Z,66.72
2018-03-06T08:17:06.659Z,66.72
2018-03-06T08:17:47.041Z,66.91
2018-03-06T08:18:27.416Z,67.86
2018-03-06T08:19:07.852Z,67.67
2018-03-06T08:19:48.223Z,67.76
2018-03-06T08:20:28.697Z,67.19
2018-03-06T08:21:09.071Z,66.53
2018-03-06T08:21:49.519Z,66.75
2018-03-06T08:22:29.953Z,66.27
2018-03-06T08:26:08.677Z,63.39
2018-03-06T08:26:49.073Z,63
2018-03-06T08:27:29.535Z,62.75
2018-03-06T08:28:10.024Z,61.32
2018-03-06T08:28:50.864Z,59.99
2018-03-06T08:29:31.032Z,59.51
2018-03-06T08:30:11.507Z,59.16
2018-03-06T08:30:52.229Z,58.87
2018-03-06T08:31:32.435Z,58.29
2018-03-06T08:32:12.864Z,58.01
2018-03-06T08:32:53.264Z,57.28
2018-03-06T08:33:33.671Z,56.8
2018-03-06T08:35:50.884Z,54.72
2018-03-06T08:36:30.379Z,53.86
2018-03-06T08:37:10.868Z,53.86
2018-03-06T08:37:51.314Z,53.86
2018-03-06T08:38:31.703Z,54.34
2018-03-06T08:39:12.203Z,53.67
2018-03-06T08:39:52.705Z,54.63
2018-03-06T08:40:33.463Z,53.67
2018-03-06T08:41:14.020Z,53.74
2018-03-06T08:41:54.428Z,55.08
2018-03-06T08:42:35.506Z,55.36
2018-03-06T08:43:16.297Z,55.65
2018-03-06T08:45:16.508Z,56.84
2018-03-06T08:45:55.509Z,57.41
2018-03-06T08:46:36.111Z,58.07
2018-03-06T08:47:16.920Z,58.46
2018-03-06T08:47:57.323Z,59.12
2018-03-06T08:48:37.798Z,59.28
2018-03-06T08:49:18.232Z,59.76
2018-03-06T08:49:58.667Z,60.24
2018-03-06T08:50:39.038Z,59.99
2018-03-06T08:51:19.509Z,59.31
2018-03-06T08:52:00.022Z,58.94
2018-03-06T08:52:40.527Z,58.07
2018-03-06T08:53:20.838Z,58.07
2018-03-06T08:54:01.409Z,57.6
2018-03-06T08:54:42.322Z,58.55
2018-03-06T08:55:22.807Z,58.07
2018-03-06T08:56:03.621Z,58.07
2018-03-06T08:56:44.305Z,58.55
2018-03-06T08:57:24.704Z,58.36
2018-03-06T08:58:05.079Z,58.17
2018-03-06T08:58:45.493Z,58.36
2018-03-06T08:59:25.958Z,57.89
2018-03-06T09:00:06.373Z,57.98
2018-03-06T09:00:46.804Z,58.36
2018-03-06T09:01:27.351Z,58.36
2018-03-06T09:02:07.823Z,58.58
2018-03-06T09:02:48.218Z,58.01
2018-03-06T09:03:28.669Z,57.34
2018-03-06T09:04:09.299Z,56.38
2018-03-06T09:04:49.985Z,56.38
2018-03-06T09:05:30.457Z,56.48
2018-03-06T09:06:10.876Z,56.48
2018-03-06T09:06:51.496Z,56.38
2018-03-06T09:07:31.942Z,56.38
2018-03-06T09:08:12.524Z,56.67
2018-03-06T09:08:52.945Z,56.77
2018-03-06T09:09:33.353Z,57.15
2018-03-06T09:10:13.765Z,57.41
2018-03-06T09:10:54.156Z,57.98
2018-03-06T09:11:34.668Z,58.26
2018-03-06T09:12:15.250Z,58.94
2018-03-06T09:12:55.638Z,58.55
2018-03-06T09:13:36.869Z,57.89
2018-03-06T09:14:17.275Z,57.92
2018-03-06T09:14:57.854Z,57.82
2018-03-06T09:15:38.457Z,57.43
2018-03-06T09:16:18.875Z,57.24
2018-03-06T09:17:00.090Z,56.87
2018-03-06T09:17:40.664Z,56.32
2018-03-06T09:18:21.056Z,55.84
2018-03-06T09:19:02.112Z,55.75
2018-03-06T09:19:43.172Z,55.36
2018-03-06T09:20:23.568Z,55.36
2018-03-06T09:21:04.027Z,55.27
2018-03-06T09:21:44.606Z,55.36
2018-03-06T09:22:24.905Z,55.27
2018-03-06T09:23:05.283Z,55.46
2018-03-06T09:23:45.746Z,55.36
2018-03-06T09:24:27.149Z,55.55
2018-03-06T09:25:07.837Z,55.72
2018-03-06T09:25:48.373Z,56.29
2018-03-06T09:26:28.798Z,56.48
2018-03-06T09:27:09.323Z,56.6
2018-03-06T09:27:49.767Z,56.41
2018-03-06T09:28:30.327Z,56.04
2018-03-06T09:29:10.973Z,55.84
2018-03-06T09:29:51.349Z,55.65
2018-03-06T09:31:45.178Z,54.34
2018-03-06T09:32:34.761Z,54.34
2018-03-06T09:33:10.200Z,54.06
2018-03-06T09:33:50.546Z,54.25
2018-03-06T09:34:31.902Z,54.08
2018-03-06T09:35:12.159Z,52.94